createdAt,value
2022-12-29T00:00:18.893Z,4.30
2022-12-29T00:01:19.775Z,3.10
2022-12-29T00:02:20.818Z,5.30
2022-12-29T00:03:21.334Z,12.00
2022-12-29T00:04:21.837Z,8.50
2022-12-29T00:05:22.679Z,11.30
2022-12-29T00:06:23.556Z,14.10
2022-12-29T00:07:24.453Z,10.00
2022-12-29T00:08:25.333Z,10.00
2022-12-29T00:09:26.216Z,4.60
2022-12-29T00:10:27.096Z,4.90
2022-12-29T00:11:27.978Z,3.90
2022-12-29T00:12:28.871Z,3.80
2022-12-29T00:13:29.777Z,2.50
2022-12-29T00:14:30.657Z,4.60
2022-12-29T00:15:31.553Z,5.30
2022-12-29T00:16:32.531Z,4.40
2022-12-29T00:17:32.974Z,6.10
2022-12-29T00:18:33.859Z,5.00
2022-12-29T00:19:34.720Z,4.50
2022-12-29T00:20:35.614Z,4.90
2022-12-29T00:21:36.489Z,3.00
2022-12-29T00:22:37.393Z,2.90
2022-12-29T00:23:38.266Z,4.00
2022-12-29T00:24:39.149Z,3.30
2022-12-29T00:25:40.034Z,3.50
2022-12-29T00:26:40.919Z,3.80
2022-12-29T00:27:41.821Z,6.50
2022-12-29T00:28:42.725Z,2.50
2022-12-29T00:29:43.586Z,3.20
2022-12-29T00:30:44.470Z,3.20
2022-12-29T00:31:45.405Z,4.80
2022-12-29T00:32:46.287Z,3.60
2022-12-29T00:33:47.170Z,7.90
2022-12-29T00:34:48.056Z,6.10
2022-12-29T00:35:48.939Z,8.00
2022-12-29T00:36:49.822Z,12.40
2022-12-29T00:37:50.708Z,15.40
2022-12-29T00:38:51.595Z,12.50
2022-12-29T00:39:52.475Z,10.20
2022-12-29T00:40:53.351Z,5.00
2022-12-29T00:41:54.235Z,6.10
2022-12-29T00:42:55.129Z,7.60
2022-12-29T00:43:56.033Z,8.20
2022-12-29T00:44:56.897Z,14.70
2022-12-29T00:45:57.770Z,18.40
2022-12-29T00:46:58.728Z,13.30
2022-12-29T00:47:59.607Z,9.10
2022-12-29T00:49:00.492Z,7.50
2022-12-29T00:50:01.375Z,5.40
2022-12-29T00:51:02.261Z,5.50
2022-12-29T00:52:03.146Z,6.00
2022-12-29T00:53:04.067Z,4.10
2022-12-29T00:54:04.926Z,5.30
2022-12-29T00:55:05.810Z,6.70
2022-12-29T00:56:06.687Z,9.10
2022-12-29T00:57:07.564Z,16.00
2022-12-29T00:58:08.460Z,13.50
2022-12-29T00:59:09.412Z,14.40
2022-12-29T01:00:10.284Z,9.90
2022-12-29T01:01:11.214Z,5.40
2022-12-29T01:02:12.180Z,4.50
2022-12-29T01:03:13.145Z,4.10
2022-12-29T01:04:13.905Z,2.80
2022-12-29T01:05:14.649Z,2.70
2022-12-29T01:06:15.575Z,4.80
2022-12-29T01:07:16.417Z,2.50
2022-12-29T01:08:17.120Z,3.30
2022-12-29T01:09:17.717Z,2.90
2022-12-29T01:10:18.635Z,2.70
2022-12-29T01:11:19.523Z,3.50
2022-12-29T01:12:20.428Z,6.60
2022-12-29T01:13:21.341Z,8.30
2022-12-29T01:14:22.264Z,5.60
2022-12-29T01:15:23.133Z,4.20
2022-12-29T01:16:24.094Z,5.90
2022-12-29T01:17:24.938Z,4.20
2022-12-29T01:18:25.860Z,5.90
2022-12-29T01:19:26.756Z,7.10
2022-12-29T01:20:27.648Z,6.00
2022-12-29T01:21:28.536Z,4.70
2022-12-29T01:22:29.417Z,3.30
2022-12-29T01:23:30.326Z,2.90
2022-12-29T01:24:31.205Z,4.00
2022-12-29T01:25:32.087Z,4.10
2022-12-29T01:26:32.971Z,4.10
2022-12-29T01:27:33.843Z,3.60
2022-12-29T01:28:34.743Z,3.70
2022-12-29T01:29:35.649Z,2.20
2022-12-29T01:30:36.509Z,1.60
2022-12-29T01:31:37.434Z,2.40
2022-12-29T01:32:38.302Z,2.60
2022-12-29T01:33:39.192Z,3.10
2022-12-29T01:34:40.075Z,5.20
2022-12-29T01:35:40.957Z,3.10
2022-12-29T01:36:41.859Z,1.70
2022-12-29T01:37:42.759Z,3.00
2022-12-29T01:38:43.633Z,3.20
2022-12-29T01:39:44.524Z,4.70
2022-12-29T01:40:45.418Z,5.80
2022-12-29T01:41:46.294Z,4.20
2022-12-29T01:42:47.177Z,6.20
2022-12-29T01:43:48.078Z,3.50
2022-12-29T01:44:49.019Z,3.60
2022-12-29T01:45:49.947Z,3.00
2022-12-29T01:46:50.804Z,2.70
2022-12-29T01:47:51.686Z,1.50
2022-12-29T01:48:52.603Z,3.00
2022-12-29T01:49:53.482Z,2.60
2022-12-29T01:50:54.374Z,3.10
2022-12-29T01:51:55.250Z,5.00
2022-12-29T01:52:56.135Z,3.70
2022-12-29T01:53:57.045Z,4.90
2022-12-29T01:54:57.915Z,10.10
2022-12-29T01:55:58.791Z,8.70
2022-12-29T01:56:59.696Z,8.70
2022-12-29T01:58:00.564Z,7.70
2022-12-29T01:59:01.451Z,6.50
2022-12-29T02:00:02.358Z,2.10
2022-12-29T02:01:03.310Z,2.80
2022-12-29T02:02:04.266Z,3.60
2022-12-29T02:03:05.185Z,1.30
2022-12-29T02:04:06.042Z,4.10
2022-12-29T02:05:06.935Z,4.40
2022-12-29T02:06:07.678Z,3.00
2022-12-29T02:07:08.567Z,3.50
2022-12-29T02:08:09.447Z,3.40
2022-12-29T02:09:10.343Z,1.90
2022-12-29T02:10:11.240Z,1.40
2022-12-29T02:11:12.122Z,3.00
2022-12-29T02:12:13.003Z,5.60
2022-12-29T02:13:13.607Z,5.00
2022-12-29T02:14:14.570Z,4.60
2022-12-29T02:15:15.477Z,6.50
2022-12-29T02:16:16.412Z,7.90
2022-12-29T02:17:17.165Z,6.20
2022-12-29T02:18:18.039Z,4.50
2022-12-29T02:19:18.611Z,5.30
2022-12-29T02:20:19.496Z,4.90
2022-12-29T02:21:20.376Z,3.00
2022-12-29T02:22:21.276Z,2.50
2022-12-29T02:23:22.176Z,3.00
2022-12-29T02:24:23.078Z,2.20
2022-12-29T02:25:23.975Z,2.00
2022-12-29T02:26:24.924Z,3.10
2022-12-29T02:27:25.814Z,3.10
2022-12-29T02:28:26.718Z,2.60
2022-12-29T02:29:27.635Z,2.20
2022-12-29T02:30:28.558Z,2.90
2022-12-29T02:31:29.498Z,3.00
2022-12-29T02:32:30.326Z,4.00
2022-12-29T02:33:31.228Z,3.60
2022-12-29T02:34:32.155Z,2.40
2022-12-29T02:35:33.038Z,2.80
2022-12-29T02:36:33.660Z,2.70
2022-12-29T02:37:34.546Z,3.00
2022-12-29T02:38:35.431Z,1.90
2022-12-29T02:39:36.323Z,2.60
2022-12-29T02:40:37.206Z,2.40
2022-12-29T02:41:38.089Z,2.50
2022-12-29T02:42:38.976Z,3.40
2022-12-29T02:43:39.926Z,6.00
2022-12-29T02:44:40.774Z,9.50
2022-12-29T02:45:41.735Z,4.10
2022-12-29T02:46:42.569Z,3.40
2022-12-29T02:47:43.460Z,2.00
2022-12-29T02:48:44.337Z,1.60
2022-12-29T02:49:45.223Z,2.10
2022-12-29T02:50:46.118Z,2.90
2022-12-29T02:51:46.989Z,2.30
2022-12-29T02:52:47.877Z,3.60
2022-12-29T02:53:48.756Z,2.70
2022-12-29T02:54:49.650Z,2.10
2022-12-29T02:55:50.563Z,2.50
2022-12-29T02:56:51.418Z,2.40
2022-12-29T02:57:52.307Z,1.80
2022-12-29T02:58:53.187Z,2.00
2022-12-29T02:59:54.076Z,3.20
2022-12-29T03:00:55.035Z,3.30
2022-12-29T03:01:56.038Z,3.10
2022-12-29T03:02:56.651Z,2.90
2022-12-29T03:03:57.159Z,4.10
2022-12-29T03:04:58.047Z,2.60
2022-12-29T03:05:58.934Z,2.30
2022-12-29T03:06:59.817Z,2.60
2022-12-29T03:08:00.701Z,1.90
2022-12-29T03:09:01.587Z,2.60
2022-12-29T03:10:02.480Z,5.90
2022-12-29T03:11:03.375Z,2.10
2022-12-29T03:12:04.249Z,1.70
2022-12-29T03:13:05.143Z,1.70
2022-12-29T03:14:06.019Z,3.10
2022-12-29T03:15:06.920Z,2.80
2022-12-29T03:16:07.773Z,3.50
2022-12-29T03:17:08.665Z,2.20
2022-12-29T03:18:09.513Z,4.00
2022-12-29T03:19:10.411Z,1.60
2022-12-29T03:20:11.346Z,1.90
2022-12-29T03:21:12.253Z,1.70
2022-12-29T03:22:13.119Z,2.30
2022-12-29T03:23:14.023Z,2.10
2022-12-29T03:24:14.514Z,3.10
2022-12-29T03:25:15.398Z,1.30
2022-12-29T03:26:16.280Z,1.50
2022-12-29T03:27:17.164Z,2.00
2022-12-29T03:28:17.693Z,1.60
2022-12-29T03:29:18.560Z,0.80
2022-12-29T03:30:19.490Z,1.80
2022-12-29T03:31:20.589Z,2.50
2022-12-29T03:32:20.978Z,1.80
2022-12-29T03:33:21.869Z,2.80
2022-12-29T03:34:22.733Z,2.80
2022-12-29T03:35:23.626Z,3.30
2022-12-29T03:36:24.516Z,3.70
2022-12-29T03:37:25.410Z,3.00
2022-12-29T03:38:26.285Z,2.30
2022-12-29T03:39:27.162Z,2.00
2022-12-29T03:40:28.075Z,1.40
2022-12-29T03:41:28.938Z,1.40
2022-12-29T03:42:29.823Z,1.30
2022-12-29T03:43:30.708Z,1.60
2022-12-29T03:44:31.611Z,1.50
2022-12-29T03:45:32.534Z,2.40
2022-12-29T03:46:33.477Z,2.40
2022-12-29T03:47:34.038Z,3.40
2022-12-29T03:48:34.883Z,2.00
2022-12-29T03:49:35.770Z,2.10
2022-12-29T03:50:36.654Z,2.40
2022-12-29T03:51:37.536Z,2.90
2022-12-29T03:52:38.416Z,3.20
2022-12-29T03:53:39.301Z,2.00
2022-12-29T03:54:40.183Z,2.90
2022-12-29T03:55:41.078Z,4.60
2022-12-29T03:56:41.962Z,2.60
2022-12-29T03:57:42.847Z,3.10
2022-12-29T03:58:43.729Z,1.60
2022-12-29T03:59:44.624Z,1.70
2022-12-29T04:00:45.506Z,3.50
2022-12-29T04:01:46.535Z,1.90
2022-12-29T04:02:47.287Z,1.60
2022-12-29T04:03:47.952Z,1.80
2022-12-29T04:04:48.423Z,1.50
2022-12-29T04:05:49.250Z,2.20
2022-12-29T04:06:50.142Z,3.00
2022-12-29T04:07:51.025Z,1.60
2022-12-29T04:08:51.904Z,1.20
2022-12-29T04:09:52.790Z,2.40
2022-12-29T04:10:53.688Z,2.70
2022-12-29T04:11:54.592Z,1.80
2022-12-29T04:12:55.481Z,2.30
2022-12-29T04:13:56.384Z,1.90
2022-12-29T04:14:57.255Z,1.20
2022-12-29T04:15:58.186Z,1.70
2022-12-29T04:16:59.064Z,0.90
2022-12-29T04:17:59.928Z,1.30
2022-12-29T04:19:00.828Z,2.10
2022-12-29T04:20:01.704Z,1.10
2022-12-29T04:21:02.588Z,1.10
2022-12-29T04:22:03.479Z,1.00
2022-12-29T04:23:04.368Z,1.40
2022-12-29T04:24:05.247Z,1.50
2022-12-29T04:25:06.129Z,0.90
2022-12-29T04:26:07.019Z,1.60
2022-12-29T04:27:07.513Z,1.40
2022-12-29T04:28:08.037Z,1.80
2022-12-29T04:29:08.612Z,1.00
2022-12-29T04:30:09.499Z,1.20
2022-12-29T04:31:10.484Z,1.10
2022-12-29T04:32:11.378Z,1.20
2022-12-29T04:33:12.240Z,1.20
2022-12-29T04:34:12.745Z,1.10
2022-12-29T04:35:13.656Z,1.80
2022-12-29T04:36:14.520Z,2.50
2022-12-29T04:37:15.397Z,4.00
2022-12-29T04:38:16.278Z,16.80
2022-12-29T04:39:17.194Z,4.90
2022-12-29T04:40:18.016Z,3.90
2022-12-29T04:41:18.917Z,3.20
2022-12-29T04:42:19.801Z,1.80
2022-12-29T04:43:20.678Z,2.50
2022-12-29T04:44:21.575Z,3.20
2022-12-29T04:45:22.451Z,2.30
2022-12-29T04:46:23.406Z,1.70
2022-12-29T04:47:24.284Z,1.70
2022-12-29T04:48:25.145Z,4.70
2022-12-29T04:49:26.045Z,3.00
2022-12-29T04:50:26.917Z,2.00
2022-12-29T04:51:27.820Z,3.30
2022-12-29T04:52:28.727Z,2.60
2022-12-29T04:53:29.624Z,2.00
2022-12-29T04:54:30.515Z,2.20
2022-12-29T04:55:31.396Z,2.90
2022-12-29T04:56:32.288Z,3.50
2022-12-29T04:57:33.170Z,3.20
2022-12-29T04:58:33.727Z,1.90
2022-12-29T04:59:34.612Z,2.90
2022-12-29T05:00:35.562Z,3.30
2022-12-29T05:01:36.557Z,5.00
2022-12-29T05:02:37.083Z,5.20
2022-12-29T05:03:37.616Z,2.70
2022-12-29T05:04:38.541Z,3.50
2022-12-29T05:05:39.396Z,2.90
2022-12-29T05:06:40.291Z,1.90
2022-12-29T05:07:41.174Z,4.20
2022-12-29T05:08:42.057Z,3.00
2022-12-29T05:09:42.942Z,3.80
2022-12-29T05:10:43.829Z,16.00
2022-12-29T05:11:44.725Z,14.00
2022-12-29T05:12:45.610Z,9.00
2022-12-29T05:13:46.488Z,6.00
2022-12-29T05:14:47.474Z,4.30
2022-12-29T05:15:48.339Z,4.50
2022-12-29T05:16:49.190Z,3.60
2022-12-29T05:17:50.100Z,1.40
2022-12-29T05:18:50.956Z,2.40
2022-12-29T05:19:51.855Z,2.10
2022-12-29T05:20:52.722Z,2.90
2022-12-29T05:21:53.619Z,2.40
2022-12-29T05:22:54.507Z,4.80
2022-12-29T05:23:55.405Z,4.20
2022-12-29T05:24:56.281Z,7.20
2022-12-29T05:25:57.162Z,7.20
2022-12-29T05:26:58.063Z,1.90
2022-12-29T05:27:58.947Z,5.00
2022-12-29T05:28:59.852Z,4.30
2022-12-29T05:30:00.772Z,6.20
2022-12-29T05:31:01.664Z,6.90
2022-12-29T05:32:02.525Z,6.50
2022-12-29T05:33:03.453Z,2.30
2022-12-29T05:34:04.327Z,2.50
2022-12-29T05:35:05.199Z,2.30
2022-12-29T05:36:06.070Z,4.00
2022-12-29T05:37:07.004Z,3.90
2022-12-29T05:38:07.852Z,2.90
2022-12-29T05:39:08.791Z,2.70
2022-12-29T05:40:09.647Z,3.80
2022-12-29T05:41:10.529Z,2.40
2022-12-29T05:42:11.426Z,2.30
2022-12-29T05:43:12.302Z,3.30
2022-12-29T05:44:13.186Z,3.60
2022-12-29T05:45:14.086Z,8.00
2022-12-29T05:46:14.886Z,3.60
2022-12-29T05:47:15.832Z,3.30
2022-12-29T05:48:16.697Z,3.60
2022-12-29T05:49:17.547Z,4.10
2022-12-29T05:50:18.212Z,4.60
2022-12-29T05:51:19.101Z,3.80
2022-12-29T05:52:19.992Z,4.00
2022-12-29T05:53:20.873Z,5.50
2022-12-29T05:54:21.758Z,4.10
2022-12-29T05:55:22.684Z,4.70
2022-12-29T05:56:23.549Z,4.20
2022-12-29T05:57:24.432Z,3.50
2022-12-29T05:58:25.324Z,4.10
2022-12-29T05:59:26.227Z,3.30
2022-12-29T06:00:27.125Z,3.60
2022-12-29T06:01:28.099Z,3.20
2022-12-29T06:02:29.061Z,5.20
2022-12-29T06:03:29.669Z,4.70
2022-12-29T06:04:30.275Z,3.90
2022-12-29T06:05:31.177Z,2.30
2022-12-29T06:06:32.040Z,2.10
2022-12-29T06:07:32.941Z,2.90
2022-12-29T06:08:33.533Z,2.40
2022-12-29T06:09:34.406Z,1.90
2022-12-29T06:10:35.287Z,2.70
2022-12-29T06:11:36.175Z,5.00
2022-12-29T06:12:37.063Z,3.90
2022-12-29T06:13:37.946Z,3.20
2022-12-29T06:14:38.837Z,2.50
2022-12-29T06:15:39.717Z,2.70
2022-12-29T06:16:40.638Z,3.40
2022-12-29T06:17:41.498Z,3.40
2022-12-29T06:18:42.398Z,3.40
2022-12-29T06:19:43.253Z,2.80
2022-12-29T06:20:44.134Z,3.20
2022-12-29T06:21:45.026Z,2.40
2022-12-29T06:22:45.916Z,2.80
2022-12-29T06:23:46.799Z,1.90
2022-12-29T06:24:47.681Z,1.90
2022-12-29T06:25:48.567Z,3.00
2022-12-29T06:26:49.453Z,1.60
2022-12-29T06:27:50.353Z,2.70
2022-12-29T06:28:51.283Z,3.60
2022-12-29T06:29:52.063Z,4.20
2022-12-29T06:30:52.950Z,3.30
2022-12-29T06:31:53.859Z,1.60
2022-12-29T06:32:54.692Z,2.50
2022-12-29T06:33:55.600Z,7.10
2022-12-29T06:34:56.457Z,2.70
2022-12-29T06:35:57.345Z,3.10
2022-12-29T06:36:58.231Z,2.40
2022-12-29T06:37:59.152Z,3.70
2022-12-29T06:39:00.055Z,2.80
2022-12-29T06:40:00.883Z,2.90
2022-12-29T06:41:01.696Z,3.10
2022-12-29T06:42:02.533Z,2.30
2022-12-29T06:43:03.360Z,2.60
2022-12-29T06:44:04.190Z,3.40
2022-12-29T06:45:05.019Z,2.10
2022-12-29T06:46:05.913Z,2.90
2022-12-29T06:47:06.718Z,4.00
2022-12-29T06:48:07.477Z,3.10
2022-12-29T06:49:08.344Z,2.90
2022-12-29T06:50:09.147Z,2.50
2022-12-29T06:51:09.978Z,2.30
2022-12-29T06:52:13.180Z,3.10
2022-12-29T06:53:11.758Z,6.90
2022-12-29T06:54:12.600Z,3.20
2022-12-29T06:55:13.415Z,6.00
2022-12-29T06:56:14.244Z,3.40
2022-12-29T06:57:15.072Z,3.10
2022-12-29T06:58:15.982Z,4.70
2022-12-29T06:59:16.817Z,5.70
2022-12-29T07:00:22.489Z,4.20
2022-12-29T07:01:19.438Z,4.20
2022-12-29T07:02:19.499Z,3.10
2022-12-29T07:03:19.978Z,1.60
2022-12-29T07:04:20.828Z,1.70
2022-12-29T07:05:21.643Z,2.30
2022-12-29T07:06:22.455Z,2.30
2022-12-29T07:07:23.285Z,2.60
2022-12-29T07:08:24.128Z,2.80
2022-12-29T07:09:24.974Z,3.10
2022-12-29T07:10:25.797Z,3.50
2022-12-29T07:11:26.623Z,2.80
2022-12-29T07:12:27.457Z,2.60
2022-12-29T07:13:28.313Z,1.80
2022-12-29T07:14:29.146Z,2.70
2022-12-29T07:15:29.973Z,2.60
2022-12-29T07:16:30.841Z,3.90
2022-12-29T07:17:31.661Z,4.00
2022-12-29T07:18:32.506Z,2.60
2022-12-29T07:19:33.357Z,3.90
2022-12-29T07:20:34.013Z,3.10
2022-12-29T07:21:34.845Z,2.40
2022-12-29T07:22:35.711Z,3.90
2022-12-29T07:23:36.532Z,5.20
2022-12-29T07:24:37.364Z,2.90
2022-12-29T07:25:38.189Z,4.40
2022-12-29T07:26:39.021Z,2.40
2022-12-29T07:27:39.855Z,2.90
2022-12-29T07:28:40.718Z,4.00
2022-12-29T07:29:41.535Z,2.00
2022-12-29T07:30:42.363Z,2.50
2022-12-29T07:31:43.295Z,4.70
2022-12-29T07:32:44.110Z,4.10
2022-12-29T07:33:44.952Z,14.70
2022-12-29T07:34:45.807Z,6.80
2022-12-29T07:35:46.623Z,5.60
2022-12-29T07:36:47.450Z,4.40
2022-12-29T07:37:48.273Z,4.60
2022-12-29T07:38:49.147Z,5.30
2022-12-29T07:39:49.975Z,4.60
2022-12-29T07:40:50.806Z,5.50
2022-12-29T07:41:51.640Z,3.60
2022-12-29T07:42:52.467Z,2.90
2022-12-29T07:43:53.299Z,3.00
2022-12-29T07:44:54.133Z,3.10
2022-12-29T07:45:55.023Z,2.90
2022-12-29T07:46:57.784Z,4.20
2022-12-29T07:47:56.322Z,3.60
2022-12-29T07:48:57.164Z,4.00
2022-12-29T07:49:58.025Z,5.40
2022-12-29T07:50:58.822Z,7.80
2022-12-29T07:51:59.649Z,9.50
2022-12-29T07:53:00.471Z,7.70
2022-12-29T07:54:01.316Z,6.30
2022-12-29T07:55:02.157Z,4.60
2022-12-29T07:56:02.969Z,5.30
2022-12-29T07:57:03.809Z,2.60
2022-12-29T07:58:04.635Z,2.60
2022-12-29T07:59:05.473Z,3.30
2022-12-29T08:00:06.308Z,7.60
2022-12-29T08:01:07.153Z,4.80
2022-12-29T08:02:08.169Z,3.10
2022-12-29T08:03:08.542Z,5.70
2022-12-29T08:04:09.455Z,6.00
2022-12-29T08:05:10.339Z,4.80
2022-12-29T08:06:11.131Z,1.70
2022-12-29T08:07:11.999Z,2.60
2022-12-29T08:08:12.792Z,2.80
2022-12-29T08:09:21.657Z,2.50
2022-12-29T08:10:15.348Z,3.30
2022-12-29T08:11:15.167Z,2.00
2022-12-29T08:12:16.019Z,3.90
2022-12-29T08:13:16.849Z,2.10
2022-12-29T08:14:17.725Z,2.60
2022-12-29T08:15:18.508Z,3.50
2022-12-29T08:16:19.449Z,4.10
2022-12-29T08:17:20.230Z,4.20
2022-12-29T08:18:21.049Z,5.00
2022-12-29T08:19:21.884Z,3.80
2022-12-29T08:20:22.735Z,1.70
2022-12-29T08:21:23.531Z,3.40
2022-12-29T08:22:24.422Z,2.20
2022-12-29T08:23:25.252Z,3.80
2022-12-29T08:24:26.091Z,3.00
2022-12-29T08:25:26.895Z,3.60
2022-12-29T08:26:27.724Z,4.70
2022-12-29T08:27:28.535Z,2.00
2022-12-29T08:28:29.370Z,3.00
2022-12-29T08:29:30.207Z,3.80
2022-12-29T08:30:31.035Z,2.40
2022-12-29T08:31:31.936Z,2.80
2022-12-29T08:32:32.789Z,2.10
2022-12-29T08:33:33.605Z,9.20
2022-12-29T08:34:34.197Z,4.40
2022-12-29T08:35:35.136Z,3.50
2022-12-29T08:36:35.950Z,5.40
2022-12-29T08:37:36.778Z,2.60
2022-12-29T08:38:37.608Z,3.00
2022-12-29T08:39:38.450Z,3.60
2022-12-29T08:40:39.279Z,8.00
2022-12-29T08:41:40.123Z,8.90
2022-12-29T08:42:40.957Z,8.40
2022-12-29T08:43:41.837Z,7.70
2022-12-29T08:44:42.649Z,11.70
2022-12-29T08:45:43.493Z,14.80
2022-12-29T08:46:44.524Z,10.10
2022-12-29T08:47:44.942Z,13.60
2022-12-29T08:48:45.766Z,6.70
2022-12-29T08:49:46.630Z,10.00
2022-12-29T08:50:47.472Z,8.80
2022-12-29T08:51:48.271Z,8.70
2022-12-29T08:52:49.097Z,8.70
2022-12-29T08:53:49.928Z,18.80
2022-12-29T08:54:50.768Z,9.50
2022-12-29T08:55:51.590Z,12.50
2022-12-29T08:56:52.437Z,4.60
2022-12-29T08:57:53.253Z,7.90
2022-12-29T08:58:54.084Z,3.20
2022-12-29T08:59:54.938Z,19.60
2022-12-29T09:00:55.740Z,4.20
2022-12-29T09:01:56.671Z,5.10
2022-12-29T09:02:57.689Z,6.80
2022-12-29T09:04:16.187Z,4.60
2022-12-29T09:04:59.902Z,4.80
2022-12-29T09:05:59.718Z,2.60
2022-12-29T09:07:00.554Z,3.30
2022-12-29T09:08:01.357Z,3.90
2022-12-29T09:09:02.187Z,4.60
2022-12-29T09:10:03.029Z,5.20
2022-12-29T09:11:03.867Z,5.20
2022-12-29T09:12:04.689Z,4.00
2022-12-29T09:13:05.517Z,3.70
2022-12-29T09:14:06.371Z,1.90
2022-12-29T09:15:07.184Z,3.20
2022-12-29T09:16:08.113Z,2.20
2022-12-29T09:17:08.919Z,2.10
2022-12-29T09:18:09.751Z,1.90
2022-12-29T09:19:10.581Z,1.70
2022-12-29T09:20:11.420Z,1.80
2022-12-29T09:21:12.297Z,3.50
2022-12-29T09:22:13.050Z,1.70
2022-12-29T09:23:13.879Z,1.60
2022-12-29T09:24:14.710Z,3.40
2022-12-29T09:25:15.553Z,5.30
2022-12-29T09:26:16.372Z,4.60
2022-12-29T09:27:17.208Z,2.70
2022-12-29T09:28:18.032Z,4.70
2022-12-29T09:29:18.859Z,3.60
2022-12-29T09:30:19.699Z,4.90
2022-12-29T09:31:20.615Z,6.90
2022-12-29T09:32:23.489Z,6.50
2022-12-29T09:33:22.318Z,4.80
2022-12-29T09:34:23.140Z,3.00
2022-12-29T09:35:23.980Z,3.00
2022-12-29T09:36:24.850Z,2.40
2022-12-29T09:37:25.666Z,2.50
2022-12-29T09:38:26.489Z,2.00
2022-12-29T09:39:27.332Z,4.40
2022-12-29T09:40:28.171Z,3.20
2022-12-29T09:41:29.014Z,3.60
2022-12-29T09:42:29.826Z,4.20
2022-12-29T09:43:30.660Z,3.40
2022-12-29T09:44:31.499Z,2.30
2022-12-29T09:45:32.332Z,3.50
2022-12-29T09:46:33.207Z,3.80
2022-12-29T09:47:34.189Z,2.20
2022-12-29T09:48:34.969Z,5.40
2022-12-29T09:49:35.800Z,2.40
2022-12-29T09:50:36.640Z,2.40
2022-12-29T09:51:37.525Z,2.40
2022-12-29T09:52:38.309Z,9.00
2022-12-29T09:53:39.136Z,7.20
2022-12-29T09:54:39.968Z,30.20
2022-12-29T09:55:40.806Z,23.80
2022-12-29T09:56:41.620Z,15.80
2022-12-29T09:57:42.442Z,26.20
2022-12-29T09:58:43.269Z,46.60
2022-12-29T09:59:44.114Z,27.60
2022-12-29T10:00:47.552Z,25.20
2022-12-29T10:01:46.809Z,44.20
2022-12-29T10:02:46.388Z,81.90
2022-12-29T10:03:46.745Z,82.20
2022-12-29T10:04:47.570Z,15.00
2022-12-29T10:05:48.402Z,8.00
2022-12-29T10:07:19.737Z,4.50
2022-12-29T10:07:50.946Z,2.20
2022-12-29T10:08:50.773Z,2.80
2022-12-29T10:09:51.612Z,3.40
2022-12-29T10:10:52.455Z,2.70
2022-12-29T10:11:53.285Z,2.10
2022-12-29T10:12:54.116Z,2.50
2022-12-29T10:13:54.951Z,2.80
2022-12-29T10:14:55.775Z,2.30
2022-12-29T10:15:56.691Z,2.80
2022-12-29T10:16:57.523Z,3.10
2022-12-29T10:17:58.354Z,2.20
2022-12-29T10:18:59.188Z,2.50
2022-12-29T10:20:00.016Z,3.30
2022-12-29T10:21:00.851Z,4.00
2022-12-29T10:22:01.692Z,2.50
2022-12-29T10:23:02.505Z,2.00
2022-12-29T10:24:03.334Z,1.80
2022-12-29T10:25:04.164Z,1.30
2022-12-29T10:26:04.993Z,1.80
2022-12-29T10:27:05.825Z,1.20
2022-12-29T10:28:06.658Z,1.40
2022-12-29T10:29:07.545Z,2.70
2022-12-29T10:30:08.363Z,1.40
2022-12-29T10:31:09.268Z,1.50
2022-12-29T10:32:10.196Z,1.50
2022-12-29T10:33:10.988Z,1.90
2022-12-29T10:34:11.817Z,3.50
2022-12-29T10:35:12.643Z,3.40
2022-12-29T10:36:13.486Z,3.00
2022-12-29T10:37:14.337Z,2.80
2022-12-29T10:38:15.147Z,2.70
2022-12-29T10:39:15.996Z,3.30
2022-12-29T10:40:16.919Z,1.50
2022-12-29T10:41:17.712Z,2.10
2022-12-29T10:42:18.538Z,3.00
2022-12-29T10:43:21.288Z,2.00
2022-12-29T10:44:20.224Z,1.60
2022-12-29T10:45:21.048Z,2.70
2022-12-29T10:46:21.922Z,3.80
2022-12-29T10:47:22.715Z,2.00
2022-12-29T10:48:28.526Z,2.80
2022-12-29T10:49:25.263Z,2.40
2022-12-29T10:50:25.086Z,2.80
2022-12-29T10:51:25.921Z,2.60
2022-12-29T10:52:26.787Z,1.80
2022-12-29T10:53:27.595Z,2.80
2022-12-29T10:54:28.428Z,8.40
2022-12-29T10:55:29.261Z,9.00
2022-12-29T10:56:30.106Z,62.20
2022-12-29T10:57:31.117Z,13.50
2022-12-29T10:58:31.885Z,2.70
2022-12-29T10:59:32.718Z,4.40
2022-12-29T11:00:33.714Z,1.50
2022-12-29T11:01:34.172Z,1.80
2022-12-29T11:02:35.148Z,1.90
2022-12-29T11:03:35.994Z,3.10
2022-12-29T11:04:36.840Z,2.20
2022-12-29T11:05:37.707Z,3.20
2022-12-29T11:06:38.539Z,3.70
2022-12-29T11:07:39.372Z,2.50
2022-12-29T11:08:40.185Z,3.60
2022-12-29T11:09:43.178Z,3.10
2022-12-29T11:10:41.846Z,4.00
2022-12-29T11:11:42.789Z,2.90
2022-12-29T11:12:43.581Z,4.80
2022-12-29T11:13:44.412Z,3.90
2022-12-29T11:14:45.236Z,2.40
2022-12-29T11:15:46.130Z,2.00
2022-12-29T11:16:46.948Z,2.70
2022-12-29T11:17:47.753Z,2.10
2022-12-29T11:18:48.582Z,2.10
2022-12-29T11:19:49.418Z,2.90
2022-12-29T11:20:50.248Z,2.30
2022-12-29T11:21:51.248Z,3.20
2022-12-29T11:22:52.076Z,2.40
2022-12-29T11:23:52.858Z,2.80
2022-12-29T11:24:53.733Z,3.60
2022-12-29T11:25:54.525Z,4.90
2022-12-29T11:26:55.368Z,3.70
2022-12-29T11:27:56.247Z,4.20
2022-12-29T11:28:57.028Z,2.40
2022-12-29T11:29:57.857Z,3.60
2022-12-29T11:30:58.689Z,3.50
2022-12-29T11:31:59.580Z,2.90
2022-12-29T11:33:00.360Z,2.60
2022-12-29T11:34:01.380Z,3.50
2022-12-29T11:35:02.187Z,4.10
2022-12-29T11:36:02.980Z,5.10
2022-12-29T11:37:03.865Z,4.30
2022-12-29T11:38:04.686Z,4.50
2022-12-29T11:39:10.484Z,5.00
2022-12-29T11:40:07.207Z,3.90
2022-12-29T11:41:07.046Z,6.80
2022-12-29T11:42:07.877Z,4.90
2022-12-29T11:43:08.707Z,3.10
2022-12-29T11:44:09.549Z,2.20
2022-12-29T11:45:11.245Z,2.30
2022-12-29T11:46:11.183Z,4.10
2022-12-29T11:47:12.007Z,4.80
2022-12-29T11:48:12.834Z,2.60
2022-12-29T11:49:13.705Z,2.00
2022-12-29T11:50:14.628Z,3.60
2022-12-29T11:51:18.144Z,3.50
2022-12-29T11:52:17.206Z,3.10
2022-12-29T11:53:17.033Z,6.90
2022-12-29T11:54:17.836Z,2.90
2022-12-29T11:55:18.672Z,3.60
2022-12-29T11:56:19.506Z,2.30
2022-12-29T11:57:20.357Z,4.10
2022-12-29T11:58:21.193Z,2.00
2022-12-29T11:59:22.010Z,3.60
2022-12-29T12:00:22.841Z,2.20
2022-12-29T12:01:23.701Z,3.40
2022-12-29T12:02:24.601Z,3.10
2022-12-29T12:03:25.689Z,2.50
2022-12-29T12:04:26.143Z,2.70
2022-12-29T12:05:26.591Z,1.80
2022-12-29T12:06:27.417Z,3.60
2022-12-29T12:07:28.261Z,3.70
2022-12-29T12:08:29.115Z,5.20
2022-12-29T12:09:29.932Z,2.30
2022-12-29T12:10:30.757Z,4.60
2022-12-29T12:11:31.585Z,1.80
2022-12-29T12:12:32.651Z,3.60
2022-12-29T12:13:32.935Z,4.20
2022-12-29T12:14:33.748Z,2.90
2022-12-29T12:15:35.078Z,2.80
2022-12-29T12:16:35.361Z,1.70
2022-12-29T12:17:36.200Z,2.70
2022-12-29T12:18:37.029Z,3.30
2022-12-29T12:19:37.863Z,2.90
2022-12-29T12:20:38.689Z,3.00
2022-12-29T12:21:45.037Z,3.80
2022-12-29T12:22:41.246Z,5.40
2022-12-29T12:23:41.086Z,1.80
2022-12-29T12:24:41.914Z,3.30
2022-12-29T12:25:42.741Z,3.40
2022-12-29T12:26:43.575Z,3.50
2022-12-29T12:27:44.420Z,4.50
2022-12-29T12:28:45.245Z,3.10
2022-12-29T12:29:46.067Z,2.20
2022-12-29T12:30:46.977Z,3.20
2022-12-29T12:31:47.802Z,2.10
2022-12-29T12:32:48.633Z,4.20
2022-12-29T12:33:49.461Z,2.90
2022-12-29T12:34:50.287Z,4.00
2022-12-29T12:35:51.132Z,1.90
2022-12-29T12:36:51.966Z,1.90
2022-12-29T12:37:52.814Z,2.20
2022-12-29T12:38:53.804Z,2.70
2022-12-29T12:39:54.768Z,3.50
2022-12-29T12:40:55.530Z,6.00
2022-12-29T12:41:56.364Z,4.90
2022-12-29T12:42:57.365Z,6.50
2022-12-29T12:43:58.141Z,3.20
2022-12-29T12:44:58.974Z,2.30
2022-12-29T12:46:00.005Z,2.00
2022-12-29T12:47:00.291Z,4.20
2022-12-29T12:48:01.140Z,2.70
2022-12-29T12:49:02.010Z,3.90
2022-12-29T12:50:02.811Z,3.60
2022-12-29T12:51:03.631Z,3.90
2022-12-29T12:52:05.412Z,4.00
2022-12-29T12:53:05.413Z,4.90
2022-12-29T12:54:06.262Z,3.50
2022-12-29T12:55:07.071Z,4.30
2022-12-29T12:56:07.903Z,2.90
2022-12-29T12:57:08.741Z,1.50
2022-12-29T12:58:09.595Z,1.90
2022-12-29T12:59:10.409Z,3.10
2022-12-29T13:00:11.303Z,1.60
2022-12-29T13:01:12.127Z,3.10
2022-12-29T13:02:13.126Z,1.40
2022-12-29T13:03:13.689Z,1.50
2022-12-29T13:04:14.113Z,1.60
2022-12-29T13:05:14.912Z,3.40
2022-12-29T13:06:15.743Z,2.10
2022-12-29T13:07:16.650Z,3.40
2022-12-29T13:08:17.444Z,3.90
2022-12-29T13:09:18.285Z,2.60
2022-12-29T13:10:19.095Z,2.50
2022-12-29T13:11:19.938Z,2.40
2022-12-29T13:12:20.754Z,1.80
2022-12-29T13:13:21.624Z,2.00
2022-12-29T13:14:22.445Z,1.40
2022-12-29T13:15:23.279Z,1.20
2022-12-29T13:16:24.163Z,1.90
2022-12-29T13:17:24.973Z,1.30
2022-12-29T13:18:25.818Z,2.50
2022-12-29T13:19:26.638Z,2.00
2022-12-29T13:20:27.472Z,1.50
2022-12-29T13:21:28.296Z,1.50
2022-12-29T13:22:29.125Z,4.80
2022-12-29T13:23:29.958Z,3.60
2022-12-29T13:24:30.826Z,2.00
2022-12-29T13:25:31.623Z,2.10
2022-12-29T13:26:32.452Z,1.30
2022-12-29T13:27:37.321Z,1.30
2022-12-29T13:28:34.194Z,3.80